Time;durP1;ratioP1;P1;durP2;ratioP2;P2;SDS_P1;SDS_P2;PMS_P1;PMS_P2;Temp;Humidity;BMP_temperature;BMP_pressure;BME280_temperature;BME280_humidity;BME280_pressure;Samples;Min_cycle;Max_cycle;Signal;HPM_P1;HPM_P2
2023/12/18 00:02:09;;;;;;;9.00;5.40;;;;;;;;;;5066659;28;41827;-74
2023/12/18 00:04:37;;;;;;;8.93;5.07;;;;;;;;;;5068255;28;40352;-74
2023/12/18 00:07:05;;;;;;;6.18;4.20;;;;;;;;;;5047465;28;42615;-75
2023/12/18 00:09:32;;;;;;;6.38;4.50;;;;;;;;;;5054637;28;43116;-74
2023/12/18 00:12:02;;;;;;;8.65;5.85;;;;;;;;;;5046290;28;40386;-75
2023/12/18 00:14:30;;;;;;;8.27;5.43;;;;;;;;;;5050019;28;41635;-75
2023/12/18 00:16:58;;;;;;;9.55;5.85;;;;;;;;;;5063703;28;41997;-75
2023/12/18 00:19:26;;;;;;;11.05;4.88;;;;;;;;;;5060929;28;41360;-75
2023/12/18 00:21:54;;;;;;;8.30;5.18;;;;;;;;;;5056738;28;41632;-75
2023/12/18 00:24:22;;;;;;;7.20;4.43;;;;;;;;;;5049970;28;41279;-75
2023/12/18 00:26:50;;;;;;;9.38;5.40;;;;;;;;;;5063210;28;42222;-74
2023/12/18 00:29:20;;;;;;;10.13;6.53;;;;;;;;;;5054994;28;43047;-74
2023/12/18 00:31:48;;;;;;;6.05;4.80;;;;;;;;;;5061906;28;40905;-74
2023/12/18 00:34:16;;;;;;;10.15;5.70;;;;;;;;;;5066564;28;41721;-75
2023/12/18 00:36:44;;;;;;;6.93;5.22;;;;;;;;;;5063157;28;42032;-75
2023/12/18 00:39:15;;;;;;;8.85;4.95;;;;;;;;;;5053509;28;41069;-75
2023/12/18 00:41:43;;;;;;;8.80;4.88;;;;;;;;;;5065712;28;42246;-75
2023/12/18 00:44:11;;;;;;;6.68;4.40;;;;;;;;;;5062719;28;41262;-74
2023/12/18 00:46:41;;;;;;;7.95;4.30;;;;;;;;;;5076855;28;42566;-75
2023/12/18 00:49:09;;;;;;;9.65;4.75;;;;;;;;;;5061835;28;42053;-74
2023/12/18 00:51:37;;;;;;;7.57;4.47;;;;;;;;;;5064058;28;40196;-74
2023/12/18 00:54:05;;;;;;;11.70;6.55;;;;;;;;;;5056084;28;42988;-74
2023/12/18 00:56:33;;;;;;;7.18;4.40;;;;;;;;;;5067745;28;41976;-74
2023/12/18 00:59:01;;;;;;;8.98;5.72;;;;;;;;;;5065313;28;40720;-75
2023/12/18 01:01:29;;;;;;;7.18;4.97;;;;;;;;;;5066322;28;41651;-74
2023/12/18 01:03:58;;;;;;;6.95;5.03;;;;;;;;;;5071866;28;43166;-75
2023/12/18 01:06:26;;;;;;;6.32;4.30;;;;;;;;;;5064731;28;41348;-74
2023/12/18 01:08:55;;;;;;;7.28;4.30;;;;;;;;;;5064523;28;41745;-74
2023/12/18 01:11:22;;;;;;;8.50;4.20;;;;;;;;;;5063398;28;40252;-74
2023/12/18 01:13:50;;;;;;;7.32;4.53;;;;;;;;;;5066335;28;41553;-74
2023/12/18 01:16:18;;;;;;;5.65;4.30;;;;;;;;;;5055246;28;41961;-74
2023/12/18 01:18:46;;;;;;;5.88;4.28;;;;;;;;;;5058844;28;40272;-75
2023/12/18 01:21:16;;;;;;;5.75;4.60;;;;;;;;;;5061549;28;41938;-75
2023/12/18 01:23:44;;;;;;;8.27;4.55;;;;;;;;;;5072646;28;42203;-75
2023/12/18 01:26:12;;;;;;;7.70;4.78;;;;;;;;;;5067388;28;41116;-74
2023/12/18 01:28:41;;;;;;;9.00;5.60;;;;;;;;;;5067217;28;42086;-74
2023/12/18 01:31:08;;;;;;;7.20;4.30;;;;;;;;;;5077473;28;41308;-75
2023/12/18 01:33:37;;;;;;;6.43;4.40;;;;;;;;;;5066455;28;42660;-75
2023/12/18 01:36:05;;;;;;;10.40;6.60;;;;;;;;;;5064157;28;41253;-74
2023/12/18 01:38:34;;;;;;;7.43;5.15;;;;;;;;;;5058791;28;40088;-75
2023/12/18 01:41:03;;;;;;;6.20;4.13;;;;;;;;;;5060657;28;41431;-75
2023/12/18 01:43:31;;;;;;;7.78;4.57;;;;;;;;;;5059516;28;42521;-75
2023/12/18 01:45:59;;;;;;;7.25;5.05;;;;;;;;;;5078570;28;41063;-75
2023/12/18 01:48:27;;;;;;;5.45;4.03;;;;;;;;;;5062014;28;42075;-74
2023/12/18 01:50:55;;;;;;;7.35;5.18;;;;;;;;;;5065674;28;40982;-74
2023/12/18 01:53:23;;;;;;;8.95;5.53;;;;;;;;;;5065838;28;42794;-74
2023/12/18 01:55:52;;;;;;;7.20;4.35;;;;;;;;;;5052356;28;42635;-74
2023/12/18 01:58:20;;;;;;;6.85;4.53;;;;;;;;;;5065277;28;39958;-75
2023/12/18 02:00:48;;;;;;;6.25;4.43;;;;;;;;;;5051732;28;41640;-74
2023/12/18 02:03:16;;;;;;;7.95;5.13;;;;;;;;;;5037662;28;40691;-75
2023/12/18 02:05:45;;;;;;;8.05;5.53;;;;;;;;;;5064278;28;40833;-75
2023/12/18 02:08:13;;;;;;;6.13;4.35;;;;;;;;;;5070226;28;42562;-74
2023/12/18 02:10:40;;;;;;;8.02;4.10;;;;;;;;;;5074897;28;41206;-74
2023/12/18 02:13:11;;;;;;;6.95;4.80;;;;;;;;;;5068099;28;20266;-75
2023/12/18 02:15:40;;;;;;;6.53;4.35;;;;;;;;;;5066737;28;41679;-74
2023/12/18 02:18:08;;;;;;;5.93;4.32;;;;;;;;;;5059819;28;40590;-74
2023/12/18 02:20:36;;;;;;;9.07;4.70;;;;;;;;;;5050209;28;41673;-75
2023/12/18 02:23:06;;;;;;;9.13;4.32;;;;;;;;;;5057904;28;42954;-75
2023/12/18 02:25:33;;;;;;;9.45;4.43;;;;;;;;;;5046562;28;37888;-74
2023/12/18 02:28:01;;;;;;;6.38;4.00;;;;;;;;;;5054224;28;41384;-75
2023/12/18 02:30:29;;;;;;;8.50;4.50;;;;;;;;;;5056828;28;43054;-75
2023/12/18 02:32:57;;;;;;;6.38;3.80;;;;;;;;;;5047533;28;41148;-75
2023/12/18 02:35:25;;;;;;;7.38;4.43;;;;;;;;;;5065537;28;41744;-75
2023/12/18 02:37:53;;;;;;;8.02;4.40;;;;;;;;;;5057163;28;41179;-75
2023/12/18 02:40:23;;;;;;;7.07;4.15;;;;;;;;;;5059591;28;42069;-75
2023/12/18 02:42:50;;;;;;;7.28;4.95;;;;;;;;;;5073185;28;41204;-75
2023/12/18 02:45:18;;;;;;;7.90;4.35;;;;;;;;;;5069645;28;40107;-74
2023/12/18 02:47:46;;;;;;;7.63;5.15;;;;;;;;;;5070049;28;41849;-75
2023/12/18 02:50:14;;;;;;;6.20;4.53;;;;;;;;;;5074358;28;42026;-74
2023/12/18 02:52:42;;;;;;;6.28;4.00;;;;;;;;;;5077243;28;41028;-74
2023/12/18 02:55:12;;;;;;;7.55;4.68;;;;;;;;;;5068042;28;41840;-74
2023/12/18 02:57:41;;;;;;;4.88;3.90;;;;;;;;;;5067900;28;39774;-74
2023/12/18 03:00:10;;;;;;;9.02;4.70;;;;;;;;;;5068888;28;42008;-75
2023/12/18 03:02:38;;;;;;;7.45;3.65;;;;;;;;;;5062892;28;41741;-74
2023/12/18 03:05:06;;;;;;;6.60;4.97;;;;;;;;;;5065045;28;39820;-75
2023/12/18 03:07:34;;;;;;;6.75;4.30;;;;;;;;;;5059913;28;41375;-75
2023/12/18 03:10:02;;;;;;;6.72;5.18;;;;;;;;;;5080717;28;41810;-74
2023/12/18 03:12:30;;;;;;;6.57;4.25;;;;;;;;;;5055524;28;41291;-74
2023/12/18 03:15:00;;;;;;;6.97;4.55;;;;;;;;;;5070488;28;41473;-74
2023/12/18 03:17:28;;;;;;;7.20;4.68;;;;;;;;;;5055931;28;38706;-75
2023/12/18 03:19:57;;;;;;;6.57;4.60;;;;;;;;;;5057482;28;41555;-74
2023/12/18 03:22:24;;;;;;;6.32;3.83;;;;;;;;;;5065749;28;42795;-75
2023/12/18 03:24:51;;;;;;;6.85;4.78;;;;;;;;;;5067922;28;42222;-74
2023/12/18 03:27:19;;;;;;;5.03;3.72;;;;;;;;;;5055035;28;41633;-75
2023/12/18 03:29:47;;;;;;;6.13;3.95;;;;;;;;;;5061705;28;42085;-75
2023/12/18 03:32:17;;;;;;;5.65;3.95;;;;;;;;;;5072336;28;41163;-75
2023/12/18 03:34:45;;;;;;;5.60;4.00;;;;;;;;;;5055321;28;41132;-74
2023/12/18 03:37:13;;;;;;;6.10;4.30;;;;;;;;;;5059018;28;43370;-75
2023/12/18 03:39:40;;;;;;;7.22;3.70;;;;;;;;;;5064532;28;42552;-75
2023/12/18 03:42:08;;;;;;;6.90;4.00;;;;;;;;;;5067280;28;41661;-74
2023/12/18 03:44:36;;;;;;;4.90;3.70;;;;;;;;;;5059713;28;40306;-74
2023/12/18 03:47:04;;;;;;;5.70;3.80;;;;;;;;;;5080026;28;41322;-75
2023/12/18 03:49:34;;;;;;;6.18;4.00;;;;;;;;;;5043856;28;40937;-75
2023/12/18 03:52:02;;;;;;;6.35;3.90;;;;;;;;;;5055181;28;40023;-74
2023/12/18 03:54:30;;;;;;;6.18;4.28;;;;;;;;;;5068300;28;41524;-74
2023/12/18 03:56:58;;;;;;;6.47;4.28;;;;;;;;;;5075501;28;43043;-74
2023/12/18 03:59:26;;;;;;;5.88;4.35;;;;;;;;;;5065263;28;42300;-75
2023/12/18 04:01:54;;;;;;;5.10;3.92;;;;;;;;;;5069552;28;41759;-75
2023/12/18 04:04:21;;;;;;;5.50;3.60;;;;;;;;;;5059686;28;40247;-74
2023/12/18 04:06:51;;;;;;;6.38;4.55;;;;;;;;;;5061954;28;41645;-74
2023/12/18 04:09:19;;;;;;;7.80;4.55;;;;;;;;;;5061314;28;41878;-74
2023/12/18 04:11:47;;;;;;;5.85;4.45;;;;;;;;;;5081098;28;39931;-74
2023/12/18 04:14:15;;;;;;;6.32;4.55;;;;;;;;;;5049065;28;41772;-75
2023/12/18 04:16:42;;;;;;;6.13;4.20;;;;;;;;;;5060161;28;42261;-74
2023/12/18 04:19:11;;;;;;;7.57;4.43;;;;;;;;;;5060183;28;40815;-74
2023/12/18 04:21:39;;;;;;;8.05;4.78;;;;;;;;;;5072876;28;43242;-75
2023/12/18 04:24:09;;;;;;;6.07;4.60;;;;;;;;;;5062279;28;39701;-74
2023/12/18 04:26:37;;;;;;;6.07;4.15;;;;;;;;;;5065845;28;41464;-75
2023/12/18 04:29:05;;;;;;;8.05;4.78;;;;;;;;;;5069011;28;41947;-75
2023/12/18 04:31:32;;;;;;;5.93;4.15;;;;;;;;;;5064242;28;39718;-75
2023/12/18 04:34:00;;;;;;;5.45;4.65;;;;;;;;;;5067161;28;41961;-75
2023/12/18 04:36:29;;;;;;;5.60;3.38;;;;;;;;;;5067742;28;41660;-74
2023/12/18 04:38:57;;;;;;;6.05;4.72;;;;;;;;;;5058848;28;40946;-75
2023/12/18 04:41:26;;;;;;;8.40;4.53;;;;;;;;;;5066674;28;41217;-74
2023/12/18 04:43:54;;;;;;;5.15;3.90;;;;;;;;;;5064863;28;41351;-75
2023/12/18 04:46:22;;;;;;;4.82;4.13;;;;;;;;;;5060495;28;41713;-75
2023/12/18 04:48:50;;;;;;;7.82;4.72;;;;;;;;;;5065636;28;41790;-74
2023/12/18 04:51:18;;;;;;;4.63;4.03;;;;;;;;;;5067128;28;40494;-74
2023/12/18 04:53:46;;;;;;;4.97;4.45;;;;;;;;;;5074750;28;41603;-75
2023/12/18 04:56:14;;;;;;;5.35;3.95;;;;;;;;;;5055149;28;43041;-75
2023/12/18 04:58:43;;;;;;;6.05;4.65;;;;;;;;;;5083477;28;41375;-75
2023/12/18 05:01:11;;;;;;;5.82;4.13;;;;;;;;;;5075770;28;41045;-74
2023/12/18 05:03:39;;;;;;;10.13;6.43;;;;;;;;;;5071526;28;41566;-74
2023/12/18 05:06:18;;;;;;;6.43;4.47;;;;;;;;;;5074470;28;41272;-75
2023/12/18 05:08:46;;;;;;;7.57;5.72;;;;;;;;;;5057403;28;42661;-74
2023/12/18 05:11:14;;;;;;;6.85;4.72;;;;;;;;;;5066043;28;40369;-74
2023/12/18 05:13:42;;;;;;;6.43;4.50;;;;;;;;;;5074235;28;41245;-75
2023/12/18 05:16:11;;;;;;;6.10;3.83;;;;;;;;;;5041772;28;41166;-75
2023/12/18 05:18:39;;;;;;;7.47;4.18;;;;;;;;;;5065759;28;40523;-75
2023/12/18 05:21:07;;;;;;;5.82;4.00;;;;;;;;;;5056924;28;41402;-75
2023/12/18 05:23:35;;;;;;;6.32;4.28;;;;;;;;;;5030396;28;41717;-75
2023/12/18 05:26:03;;;;;;;7.95;5.38;;;;;;;;;;5065256;28;40164;-75
2023/12/18 05:28:31;;;;;;;6.30;4.60;;;;;;;;;;5065079;28;42109;-74
2023/12/18 05:30:59;;;;;;;4.95;3.83;;;;;;;;;;5048677;28;40285;-75
2023/12/18 05:33:28;;;;;;;5.13;3.80;;;;;;;;;;5047339;28;41206;-75
2023/12/18 05:35:56;;;;;;;5.13;4.07;;;;;;;;;;5030616;28;41441;-74
2023/12/18 05:38:24;;;;;;;7.20;4.82;;;;;;;;;;5060174;28;40589;-75
2023/12/18 05:40:52;;;;;;;6.35;4.10;;;;;;;;;;5065051;28;41513;-74
2023/12/18 05:43:20;;;;;;;6.40;4.38;;;;;;;;;;5057434;28;43746;-74
2023/12/18 05:45:48;;;;;;;5.63;3.95;;;;;;;;;;5034550;28;38845;-74
2023/12/18 05:48:16;;;;;;;6.38;4.72;;;;;;;;;;5052295;28;41476;-75
2023/12/18 05:50:45;;;;;;;5.20;3.83;;;;;;;;;;5064593;28;40944;-74
2023/12/18 05:53:13;;;;;;;5.85;3.53;;;;;;;;;;5053760;28;41701;-75
2023/12/18 05:55:41;;;;;;;7.40;4.45;;;;;;;;;;5065508;28;43113;-74
2023/12/18 05:58:09;;;;;;;5.70;4.57;;;;;;;;;;5064518;28;39985;-75
2023/12/18 06:00:38;;;;;;;7.43;4.20;;;;;;;;;;5064486;28;42347;-75
2023/12/18 06:03:06;;;;;;;5.80;4.35;;;;;;;;;;5056315;28;41738;-75
2023/12/18 06:05:34;;;;;;;6.50;4.55;;;;;;;;;;5056758;28;40521;-74
2023/12/18 06:08:04;;;;;;;6.45;4.57;;;;;;;;;;5058767;28;42555;-75
2023/12/18 06:10:32;;;;;;;5.05;4.10;;;;;;;;;;5063238;28;39737;-75
2023/12/18 06:13:00;;;;;;;7.32;4.35;;;;;;;;;;5065322;28;41484;-74
2023/12/18 06:15:28;;;;;;;8.23;5.28;;;;;;;;;;5063022;28;41963;-74
2023/12/18 06:17:56;;;;;;;8.05;4.65;;;;;;;;;;5065024;28;40408;-74
2023/12/18 06:20:24;;;;;;;10.43;6.90;;;;;;;;;;5069846;28;41452;-75
2023/12/18 06:22:52;;;;;;;4.47;3.88;;;;;;;;;;5063685;28;41553;-74
2023/12/18 06:25:21;;;;;;;6.28;4.45;;;;;;;;;;5062425;28;41358;-75
2023/12/18 06:27:49;;;;;;;7.05;4.68;;;;;;;;;;5066316;28;42155;-75
2023/12/18 06:30:17;;;;;;;7.53;5.05;;;;;;;;;;5081858;28;42082;-74
2023/12/18 06:32:45;;;;;;;5.68;4.18;;;;;;;;;;5067140;28;40621;-74
2023/12/18 06:35:14;;;;;;;6.78;5.32;;;;;;;;;;5046246;28;41639;-75
2023/12/18 06:37:42;;;;;;;6.97;4.40;;;;;;;;;;5065203;28;40988;-75
2023/12/18 06:40:11;;;;;;;7.35;4.75;;;;;;;;;;5064529;28;41539;-75
2023/12/18 06:42:40;;;;;;;6.63;4.00;;;;;;;;;;5069298;28;42214;-75
2023/12/18 06:45:09;;;;;;;7.22;5.20;;;;;;;;;;5073103;28;40161;-75
2023/12/18 06:47:37;;;;;;;4.80;3.63;;;;;;;;;;5063280;28;41635;-71
2023/12/18 06:50:05;;;;;;;7.68;6.10;;;;;;;;;;5069802;28;42711;-71
2023/12/18 06:52:33;;;;;;;5.90;4.10;;;;;;;;;;5079233;28;40405;-71
2023/12/18 06:55:01;;;;;;;6.15;4.43;;;;;;;;;;5072372;28;42405;-71
2023/12/18 06:57:29;;;;;;;5.75;4.72;;;;;;;;;;5069875;28;40166;-72
2023/12/18 06:59:59;;;;;;;5.90;4.65;;;;;;;;;;5069180;28;41637;-71
2023/12/18 07:02:27;;;;;;;7.70;5.93;;;;;;;;;;5057571;28;42510;-71
2023/12/18 07:04:55;;;;;;;6.88;4.13;;;;;;;;;;5061249;28;40390;-71
2023/12/18 07:07:23;;;;;;;6.50;4.50;;;;;;;;;;5066892;28;42267;-71
2023/12/18 07:09:51;;;;;;;6.35;4.78;;;;;;;;;;5068122;28;42805;-71
2023/12/18 07:12:19;;;;;;;6.03;4.57;;;;;;;;;;5068167;28;40712;-71
2023/12/18 07:14:47;;;;;;;7.60;4.75;;;;;;;;;;5058084;28;39601;-71
2023/12/18 07:17:16;;;;;;;5.53;4.53;;;;;;;;;;5078259;28;39741;-71
2023/12/18 07:19:44;;;;;;;6.78;4.75;;;;;;;;;;5063101;28;42532;-71
2023/12/18 07:22:12;;;;;;;6.35;4.15;;;;;;;;;;5062746;28;41884;-71
2023/12/18 07:24:40;;;;;;;5.95;4.40;;;;;;;;;;5061151;28;40475;-71
2023/12/18 07:27:08;;;;;;;7.25;4.75;;;;;;;;;;5057469;28;41234;-71
2023/12/18 07:29:36;;;;;;;6.13;5.20;;;;;;;;;;5069957;28;42356;-71
2023/12/18 07:32:04;;;;;;;6.75;4.65;;;;;;;;;;5069866;28;40904;-71
2023/12/18 07:34:34;;;;;;;8.73;4.85;;;;;;;;;;5079765;28;41614;-71
2023/12/18 07:37:02;;;;;;;6.32;4.28;;;;;;;;;;5054011;28;41811;-71
2023/12/18 07:39:31;;;;;;;9.30;5.88;;;;;;;;;;5067264;28;41434;-71
2023/12/18 07:41:59;;;;;;;6.28;5.13;;;;;;;;;;5062820;28;43387;-71
2023/12/18 07:44:27;;;;;;;5.32;3.92;;;;;;;;;;5068276;28;41335;-71
2023/12/18 07:46:55;;;;;;;9.73;5.78;;;;;;;;;;5066057;28;41388;-71
2023/12/18 07:49:23;;;;;;;6.75;5.10;;;;;;;;;;5048466;28;41281;-71
2023/12/18 07:51:52;;;;;;;6.57;4.97;;;;;;;;;;5068231;28;41344;-71
2023/12/18 07:54:20;;;;;;;4.97;4.47;;;;;;;;;;5057736;28;41232;-71
2023/12/18 07:56:48;;;;;;;10.15;6.55;;;;;;;;;;5051856;28;42576;-71
2023/12/18 07:59:17;;;;;;;7.18;4.50;;;;;;;;;;5063767;28;41156;-71
2023/12/18 08:01:45;;;;;;;8.38;5.97;;;;;;;;;;5066660;28;42026;-71
2023/12/18 08:04:13;;;;;;;6.43;4.63;;;;;;;;;;5066105;28;40213;-71
2023/12/18 08:06:41;;;;;;;8.60;6.00;;;;;;;;;;5057551;28;42579;-71
2023/12/18 08:09:11;;;;;;;8.90;6.22;;;;;;;;;;5060403;28;41074;-71
2023/12/18 08:11:39;;;;;;;10.25;7.05;;;;;;;;;;5063997;28;40898;-71
2023/12/18 08:14:07;;;;;;;7.40;5.70;;;;;;;;;;5061814;28;41839;-71
2023/12/18 08:16:35;;;;;;;7.18;5.82;;;;;;;;;;5067301;28;41544;-71
2023/12/18 08:19:03;;;;;;;6.70;4.70;;;;;;;;;;5063103;28;40352;-71
2023/12/18 08:21:31;;;;;;;8.30;5.78;;;;;;;;;;5062650;28;41993;-71
2023/12/18 08:23:59;;;;;;;8.70;5.10;;;;;;;;;;5067471;28;41042;-68
2023/12/18 08:26:29;;;;;;;10.77;7.75;;;;;;;;;;5063925;28;41509;-68
2023/12/18 08:28:57;;;;;;;9.25;5.95;;;;;;;;;;5065324;28;42256;-68
2023/12/18 08:31:26;;;;;;;15.23;6.70;;;;;;;;;;5056535;28;40336;-68
2023/12/18 08:33:54;;;;;;;9.43;6.25;;;;;;;;;;5055736;28;41903;-66
2023/12/18 08:36:22;;;;;;;10.93;5.50;;;;;;;;;;5064590;28;41570;-66
2023/12/18 08:38:50;;;;;;;10.68;7.40;;;;;;;;;;5053215;28;40425;-67
2023/12/18 08:41:18;;;;;;;12.13;7.20;;;;;;;;;;5061618;28;41667;-66
2023/12/18 08:43:47;;;;;;;11.25;7.95;;;;;;;;;;5060720;28;40316;-67
2023/12/18 08:46:29;;;;;;;10.40;7.45;;;;;;;;;;5062418;28;42570;-67
2023/12/18 08:48:57;;;;;;;11.80;7.93;;;;;;;;;;5064305;28;42371;-67
2023/12/18 08:51:25;;;;;;;10.45;7.03;;;;;;;;;;5054613;28;40292;-67
2023/12/18 08:53:54;;;;;;;9.13;6.05;;;;;;;;;;5060579;28;41731;-67
2023/12/18 08:56:23;;;;;;;14.00;8.35;;;;;;;;;;5055295;28;41824;-67
2023/12/18 08:58:52;;;;;;;8.50;5.82;;;;;;;;;;5061603;28;40784;-67
2023/12/18 09:01:20;;;;;;;10.93;6.85;;;;;;;;;;5062973;28;41976;-67
2023/12/18 09:03:50;;;;;;;9.82;7.20;;;;;;;;;;5065545;28;41599;-67
2023/12/18 09:06:18;;;;;;;12.30;7.63;;;;;;;;;;5061116;28;41070;-70
2023/12/18 09:08:46;;;;;;;8.48;6.20;;;;;;;;;;5054965;28;41790;-68
2023/12/18 09:11:14;;;;;;;6.50;5.05;;;;;;;;;;5063873;28;40998;-68
2023/12/18 09:13:42;;;;;;;7.25;5.63;;;;;;;;;;5065168;28;41297;-69
2023/12/18 09:16:12;;;;;;;17.02;9.88;;;;;;;;;;5059691;28;42313;-68
2023/12/18 09:18:40;;;;;;;17.42;8.90;;;;;;;;;;5063554;28;41478;-67
2023/12/18 09:21:08;;;;;;;12.63;7.82;;;;;;;;;;5059000;28;40140;-68
2023/12/18 09:23:36;;;;;;;11.40;7.03;;;;;;;;;;5059180;28;42649;-67
2023/12/18 09:26:04;;;;;;;12.23;9.13;;;;;;;;;;5058708;28;39889;-68
2023/12/18 09:28:32;;;;;;;9.18;6.85;;;;;;;;;;5063105;28;42569;-68
2023/12/18 09:31:00;;;;;;;12.30;7.20;;;;;;;;;;5055085;28;40398;-68
2023/12/18 09:33:30;;;;;;;12.35;8.52;;;;;;;;;;5058200;28;40064;-69
2023/12/18 09:35:58;;;;;;;12.90;6.88;;;;;;;;;;5062386;28;42115;-69
2023/12/18 09:38:28;;;;;;;10.73;6.75;;;;;;;;;;5058930;28;39905;-67
2023/12/18 09:40:56;;;;;;;9.98;7.30;;;;;;;;;;5064924;28;41483;-67
2023/12/18 09:43:26;;;;;;;9.43;6.45;;;;;;;;;;5063284;28;41724;-67
2023/12/18 09:45:54;;;;;;;10.05;6.00;;;;;;;;;;5064407;28;43154;-67
2023/12/18 09:48:23;;;;;;;12.50;5.60;;;;;;;;;;5062142;28;41564;-66
2023/12/18 09:50:52;;;;;;;8.88;5.63;;;;;;;;;;5064771;28;41439;-68
2023/12/18 09:53:21;;;;;;;12.90;6.32;;;;;;;;;;5066585;28;39681;-67
2023/12/18 09:55:51;;;;;;;9.25;7.22;;;;;;;;;;5060942;28;42641;-68
2023/12/18 09:58:19;;;;;;;10.02;6.40;;;;;;;;;;5068276;28;40536;-68
2023/12/18 10:00:47;;;;;;;10.32;6.63;;;;;;;;;;5068996;28;41678;-68
2023/12/18 10:03:16;;;;;;;11.60;7.40;;;;;;;;;;5067013;28;42266;-67
2023/12/18 10:05:45;;;;;;;9.52;6.80;;;;;;;;;;5045129;28;38712;-67
2023/12/18 10:08:15;;;;;;;9.73;5.82;;;;;;;;;;5026131;28;42151;-68
2023/12/18 10:10:43;;;;;;;9.35;6.45;;;;;;;;;;5028280;28;32651;-67
2023/12/18 10:13:11;;;;;;;8.23;6.13;;;;;;;;;;5028113;28;41564;-67
2023/12/18 10:15:40;;;;;;;12.68;8.25;;;;;;;;;;5026188;28;42090;-67
2023/12/18 10:18:09;;;;;;;12.93;6.88;;;;;;;;;;5015297;28;40780;-66
2023/12/18 10:20:37;;;;;;;9.75;6.82;;;;;;;;;;5023965;28;41406;-67
2023/12/18 10:23:05;;;;;;;12.05;7.43;;;;;;;;;;5026015;28;42948;-67
2023/12/18 10:25:34;;;;;;;11.45;7.03;;;;;;;;;;5040340;28;39887;-67
2023/12/18 10:28:03;;;;;;;14.45;8.30;;;;;;;;;;5028417;28;42249;-66
2023/12/18 10:30:31;;;;;;;10.00;6.80;;;;;;;;;;5029157;28;43142;-67
2023/12/18 10:32:59;;;;;;;13.98;8.55;;;;;;;;;;5022015;28;42758;-67
2023/12/18 10:35:28;;;;;;;12.00;8.10;;;;;;;;;;5023272;28;41838;-68
2023/12/18 10:37:56;;;;;;;12.50;6.95;;;;;;;;;;5019165;28;40303;-67
2023/12/18 10:40:26;;;;;;;9.43;6.15;;;;;;;;;;5018267;28;41649;-67
2023/12/18 10:43:05;;;;;;;9.23;5.93;;;;;;;;;;5027186;28;41677;-67
2023/12/18 10:45:33;;;;;;;9.63;6.15;;;;;;;;;;5017654;28;39970;-68
2023/12/18 10:48:01;;;;;;;13.88;9.65;;;;;;;;;;5022568;28;41597;-68
2023/12/18 10:50:30;;;;;;;12.57;7.35;;;;;;;;;;5022026;28;42350;-69
2023/12/18 10:52:58;;;;;;;18.23;8.32;;;;;;;;;;5028675;28;40212;-68
2023/12/18 10:55:26;;;;;;;9.75;6.07;;;;;;;;;;5016361;28;43074;-68
2023/12/18 10:57:55;;;;;;;9.35;7.32;;;;;;;;;;5025457;28;40291;-68
2023/12/18 11:00:24;;;;;;;10.48;6.70;;;;;;;;;;5027419;28;42128;-68
2023/12/18 11:02:52;;;;;;;16.77;10.30;;;;;;;;;;5030094;28;41233;-68
2023/12/18 11:05:20;;;;;;;19.73;9.02;;;;;;;;;;5016624;28;40687;-69
2023/12/18 11:07:48;;;;;;;13.05;8.70;;;;;;;;;;5031527;28;40085;-67
2023/12/18 11:10:16;;;;;;;12.38;6.20;;;;;;;;;;5046537;28;40744;-68
2023/12/18 11:12:44;;;;;;;13.02;5.25;;;;;;;;;;5047673;28;41517;-67
2023/12/18 11:15:13;;;;;;;13.45;7.85;;;;;;;;;;5043137;28;42113;-67
2023/12/18 11:17:44;;;;;;;14.55;7.43;;;;;;;;;;5048188;28;40228;-67
2023/12/18 11:20:17;;;;;;;10.25;8.00;;;;;;;;;;5047225;28;42405;-67
2023/12/18 11:22:45;;;;;;;12.75;7.22;;;;;;;;;;5033083;28;40719;-68
2023/12/18 11:25:13;;;;;;;9.65;6.30;;;;;;;;;;5048564;28;41084;-68
2023/12/18 11:27:41;;;;;;;8.85;6.55;;;;;;;;;;5040569;28;41804;-68
2023/12/18 11:30:22;;;;;;;12.82;8.48;;;;;;;;;;5048287;28;42995;-67
2023/12/18 11:32:52;;;;;;;9.45;6.80;;;;;;;;;;5042435;28;41092;-67
2023/12/18 11:35:22;;;;;;;9.20;6.30;;;;;;;;;;5034821;28;41255;-67
2023/12/18 11:37:50;;;;;;;10.10;7.07;;;;;;;;;;5048543;28;42190;-67
2023/12/18 11:40:35;;;;;;;10.77;7.15;;;;;;;;;;5030992;28;41747;-67
2023/12/18 11:43:03;;;;;;;11.43;7.35;;;;;;;;;;5045473;28;41930;-67
2023/12/18 11:45:31;;;;;;;9.18;6.22;;;;;;;;;;5048662;28;40965;-68
2023/12/18 11:48:02;;;;;;;15.05;9.60;;;;;;;;;;5047649;28;42226;-68
2023/12/18 11:50:31;;;;;;;14.75;9.95;;;;;;;;;;5046578;28;40982;-68
2023/12/18 11:53:02;;;;;;;16.92;10.18;;;;;;;;;;5046044;28;40365;-68
2023/12/18 11:55:54;;;;;;;13.95;9.68;;;;;;;;;;5033610;28;42741;-68
2023/12/18 11:58:25;;;;;;;14.43;9.98;;;;;;;;;;5014622;28;43078;-68
2023/12/18 12:00:53;;;;;;;15.65;8.43;;;;;;;;;;5038303;28;40549;-69
2023/12/18 12:03:22;;;;;;;14.77;8.07;;;;;;;;;;5038386;28;41742;-68
2023/12/18 12:05:50;;;;;;;10.82;7.47;;;;;;;;;;5047380;28;41338;-69
2023/12/18 12:08:18;;;;;;;13.80;8.90;;;;;;;;;;5064965;28;41681;-68
2023/12/18 12:10:46;;;;;;;13.38;6.00;;;;;;;;;;5062060;28;41966;-68
2023/12/18 12:13:17;;;;;;;12.73;8.30;;;;;;;;;;5063141;28;40878;-68
2023/12/18 12:15:55;;;;;;;12.77;6.88;;;;;;;;;;5063949;28;41673;-68
2023/12/18 12:18:26;;;;;;;15.68;9.48;;;;;;;;;;5065699;28;41822;-68
2023/12/18 12:20:54;;;;;;;8.68;5.95;;;;;;;;;;5063828;28;39464;-68
2023/12/18 12:23:22;;;;;;;9.77;6.65;;;;;;;;;;5054906;28;41680;-68
2023/12/18 12:25:51;;;;;;;8.63;6.82;;;;;;;;;;5061434;28;41049;-68
2023/12/18 12:28:20;;;;;;;12.98;6.90;;;;;;;;;;5059526;28;42043;-68
2023/12/18 12:30:48;;;;;;;11.90;7.15;;;;;;;;;;5061453;28;41544;-67
2023/12/18 12:33:17;;;;;;;11.63;9.10;;;;;;;;;;5062710;28;40155;-68
2023/12/18 12:35:46;;;;;;;12.02;7.88;;;;;;;;;;5067485;28;41584;-68
2023/12/18 12:38:15;;;;;;;11.98;8.20;;;;;;;;;;5063805;28;41501;-68
2023/12/18 12:40:43;;;;;;;10.27;7.28;;;;;;;;;;5065128;28;40026;-68
2023/12/18 12:43:11;;;;;;;10.13;6.90;;;;;;;;;;5062854;28;40297;-68
2023/12/18 12:45:40;;;;;;;10.95;7.05;;;;;;;;;;5064904;28;41462;-68
2023/12/18 12:48:07;;;;;;;10.93;6.88;;;;;;;;;;5061970;28;41729;-68
2023/12/18 12:50:35;;;;;;;8.57;6.90;;;;;;;;;;5060398;28;43129;-69
2023/12/18 12:53:05;;;;;;;12.38;8.77;;;;;;;;;;5059378;28;42286;-68
2023/12/18 12:55:33;;;;;;;10.30;6.07;;;;;;;;;;5064543;28;41876;-68
2023/12/18 12:58:01;;;;;;;13.02;7.32;;;;;;;;;;5061474;28;41665;-68
2023/12/18 13:00:29;;;;;;;14.23;8.23;;;;;;;;;;5056222;28;40507;-68
2023/12/18 13:02:57;;;;;;;11.60;8.68;;;;;;;;;;5054700;28;42202;-68
2023/12/18 13:05:25;;;;;;;10.00;6.32;;;;;;;;;;5063159;28;42023;-68
2023/12/18 13:07:55;;;;;;;14.32;7.53;;;;;;;;;;5058466;28;42295;-67
2023/12/18 13:10:25;;;;;;;11.90;7.72;;;;;;;;;;5064911;28;44493;-67
2023/12/18 13:12:54;;;;;;;10.93;8.75;;;;;;;;;;5055789;28;41180;-68
2023/12/18 13:15:22;;;;;;;11.43;8.30;;;;;;;;;;5066765;28;42079;-70
2023/12/18 13:17:50;;;;;;;10.95;8.45;;;;;;;;;;5065259;28;41573;-67
2023/12/18 13:20:18;;;;;;;16.88;10.95;;;;;;;;;;5064605;28;41879;-68
2023/12/18 13:22:55;;;;;;;13.13;7.10;;;;;;;;;;5044048;28;41168;-68
2023/12/18 13:25:25;;;;;;;10.40;7.57;;;;;;;;;;5061367;28;42696;-69
2023/12/18 13:27:53;;;;;;;10.95;8.43;;;;;;;;;;5059191;28;40633;-68
2023/12/18 13:30:22;;;;;;;13.85;8.30;;;;;;;;;;5052496;28;42096;-68
2023/12/18 13:32:50;;;;;;;11.70;8.00;;;;;;;;;;5059231;28;40682;-68
2023/12/18 13:35:18;;;;;;;14.40;8.25;;;;;;;;;;5058356;28;42548;-67
2023/12/18 13:37:46;;;;;;;11.45;7.53;;;;;;;;;;5061240;28;43515;-67
2023/12/18 13:40:14;;;;;;;15.15;9.77;;;;;;;;;;5044498;28;38660;-70
2023/12/18 13:42:44;;;;;;;10.57;7.22;;;;;;;;;;5062849;28;41489;-68
2023/12/18 13:45:11;;;;;;;11.52;8.85;;;;;;;;;;5062554;28;42088;-73
2023/12/18 13:47:40;;;;;;;10.60;8.25;;;;;;;;;;5060879;28;40196;-71
2023/12/18 13:50:08;;;;;;;11.60;7.85;;;;;;;;;;5063503;28;42576;-71
2023/12/18 13:52:38;;;;;;;11.60;7.50;;;;;;;;;;5056997;28;39230;-71
2023/12/18 13:55:06;;;;;;;15.35;9.38;;;;;;;;;;5044099;28;40406;-67
2023/12/18 13:57:34;;;;;;;12.18;6.97;;;;;;;;;;5055951;28;42844;-70
2023/12/18 14:00:16;;;;;;;10.82;7.72;;;;;;;;;;5057662;28;40352;-67
2023/12/18 14:02:48;;;;;;;12.07;8.80;;;;;;;;;;5058204;28;41466;-68
2023/12/18 14:05:16;;;;;;;9.05;7.72;;;;;;;;;;5062948;28;41918;-65
2023/12/18 14:07:44;;;;;;;12.35;6.90;;;;;;;;;;5058864;28;39745;-67
2023/12/18 14:10:13;;;;;;;11.60;6.88;;;;;;;;;;5060241;28;41457;-67
2023/12/18 14:12:40;;;;;;;9.38;6.88;;;;;;;;;;5043999;28;40278;-65
2023/12/18 14:15:10;;;;;;;11.77;7.90;;;;;;;;;;5062625;28;41329;-68
2023/12/18 14:17:40;;;;;;;10.35;7.53;;;;;;;;;;5060404;28;43184;-67
2023/12/18 14:20:08;;;;;;;10.85;7.88;;;;;;;;;;5062007;28;39821;-68
2023/12/18 14:22:37;;;;;;;12.82;8.30;;;;;;;;;;5043303;28;40451;-67
2023/12/18 14:25:06;;;;;;;8.25;6.45;;;;;;;;;;5056849;28;41965;-70
2023/12/18 14:27:34;;;;;;;13.85;8.00;;;;;;;;;;5056222;28;40666;-67
2023/12/18 14:30:03;;;;;;;9.15;6.95;;;;;;;;;;5058828;28;41565;-69
2023/12/18 14:32:31;;;;;;;10.43;7.28;;;;;;;;;;5061159;28;41180;-71
2023/12/18 14:35:00;;;;;;;9.32;7.22;;;;;;;;;;5063436;28;41675;-68
2023/12/18 14:37:28;;;;;;;10.23;7.72;;;;;;;;;;5057753;28;42168;-69
2023/12/18 14:39:56;;;;;;;11.35;7.85;;;;;;;;;;5062292;28;40799;-69
2023/12/18 14:42:24;;;;;;;8.07;6.65;;;;;;;;;;5062666;28;41609;-69
2023/12/18 14:44:52;;;;;;;10.70;6.90;;;;;;;;;;5060577;28;43038;-71
2023/12/18 14:47:20;;;;;;;9.32;7.35;;;;;;;;;;5034639;28;38786;-66